sensor_id;sensor_type;location;lat;lon;timestamp;P1;durP1;ratioP1;P2;durP2;ratioP2
57111;SDS011;42992;49.084;19.300;2022-10-16T00:01:32;16.60;;;9.82;;
57111;SDS011;42992;49.084;19.300;2022-10-16T00:03:58;18.77;;;10.45;;
57111;SDS011;42992;49.084;19.300;2022-10-16T00:06:24;15.32;;;9.77;;
57111;SDS011;42992;49.084;19.300;2022-10-16T00:08:50;14.13;;;10.05;;
57111;SDS011;42992;49.084;19.300;2022-10-16T00:13:41;16.88;;;10.82;;
57111;SDS011;42992;49.084;19.300;2022-10-16T00:16:08;17.40;;;10.07;;
57111;SDS011;42992;49.084;19.300;2022-10-16T00:18:36;13.95;;;10.15;;
57111;SDS011;42992;49.084;19.300;2022-10-16T00:21:03;13.80;;;10.50;;
57111;SDS011;42992;49.084;19.300;2022-10-16T00:23:31;19.70;;;9.73;;
57111;SDS011;42992;49.084;19.300;2022-10-16T00:25:59;16.15;;;11.10;;
57111;SDS011;42992;49.084;19.300;2022-10-16T00:28:24;15.02;;;10.65;;
57111;SDS011;42992;49.084;19.300;2022-10-16T00:30:49;16.60;;;11.85;;
57111;SDS011;42992;49.084;19.300;2022-10-16T00:33:15;18.65;;;10.68;;
57111;SDS011;42992;49.084;19.300;2022-10-16T00:35:40;14.63;;;10.38;;
57111;SDS011;42992;49.084;19.300;2022-10-16T00:38:06;14.93;;;10.85;;
57111;SDS011;42992;49.084;19.300;2022-10-16T00:40:31;17.48;;;10.30;;
57111;SDS011;42992;49.084;19.300;2022-10-16T00:42:56;21.42;;;10.50;;
57111;SDS011;42992;49.084;19.300;2022-10-16T00:45:22;14.60;;;10.20;;
57111;SDS011;42992;49.084;19.300;2022-10-16T00:47:47;14.45;;;10.38;;
57111;SDS011;42992;49.084;19.300;2022-10-16T00:52:42;15.18;;;10.23;;
57111;SDS011;42992;49.084;19.300;2022-10-16T00:55:09;16.23;;;9.52;;
57111;SDS011;42992;49.084;19.300;2022-10-16T00:57:35;13.77;;;9.57;;
57111;SDS011;42992;49.084;19.300;2022-10-16T01:00:02;15.95;;;10.05;;
57111;SDS011;42992;49.084;19.300;2022-10-16T01:02:28;13.65;;;9.93;;
57111;SDS011;42992;49.084;19.300;2022-10-16T01:04:53;17.77;;;10.27;;
57111;SDS011;42992;49.084;19.300;2022-10-16T01:12:33;15.05;;;10.25;;
57111;SDS011;42992;49.084;19.300;2022-10-16T01:17:48;19.27;;;10.95;;
57111;SDS011;42992;49.084;19.300;2022-10-16T01:20:26;16.48;;;9.98;;
57111;SDS011;42992;49.084;19.300;2022-10-16T01:22:59;15.73;;;10.00;;
57111;SDS011;42992;49.084;19.300;2022-10-16T01:25:36;15.98;;;10.93;;
57111;SDS011;42992;49.084;19.300;2022-10-16T01:28:04;16.55;;;10.95;;
57111;SDS011;42992;49.084;19.300;2022-10-16T01:30:31;14.90;;;10.95;;
57111;SDS011;42992;49.084;19.300;2022-10-16T01:33:02;18.13;;;10.88;;
57111;SDS011;42992;49.084;19.300;2022-10-16T01:35:33;15.45;;;10.77;;
57111;SDS011;42992;49.084;19.300;2022-10-16T01:38:17;14.13;;;10.98;;
57111;SDS011;42992;49.084;19.300;2022-10-16T01:40:46;14.43;;;10.02;;
57111;SDS011;42992;49.084;19.300;2022-10-16T01:43:14;15.13;;;10.18;;
57111;SDS011;42992;49.084;19.300;2022-10-16T01:45:41;15.93;;;10.23;;
57111;SDS011;42992;49.084;19.300;2022-10-16T01:48:08;13.55;;;10.02;;
57111;SDS011;42992;49.084;19.300;2022-10-16T01:50:36;15.38;;;10.73;;
57111;SDS011;42992;49.084;19.300;2022-10-16T01:53:03;15.90;;;11.00;;
57111;SDS011;42992;49.084;19.300;2022-10-16T01:55:31;19.20;;;12.38;;
57111;SDS011;42992;49.084;19.300;2022-10-16T01:57:58;19.33;;;11.65;;
57111;SDS011;42992;49.084;19.300;2022-10-16T02:00:26;17.02;;;12.00;;
57111;SDS011;42992;49.084;19.300;2022-10-16T02:02:53;17.70;;;12.35;;
57111;SDS011;42992;49.084;19.300;2022-10-16T02:05:22;19.25;;;12.10;;
57111;SDS011;42992;49.084;19.300;2022-10-16T02:07:48;18.73;;;11.68;;
57111;SDS011;42992;49.084;19.300;2022-10-16T02:10:14;15.38;;;11.77;;
57111;SDS011;42992;49.084;19.300;2022-10-16T02:12:40;16.50;;;12.40;;
57111;SDS011;42992;49.084;19.300;2022-10-16T02:15:08;18.65;;;11.48;;
57111;SDS011;42992;49.084;19.300;2022-10-16T02:17:34;18.70;;;11.52;;
57111;SDS011;42992;49.084;19.300;2022-10-16T02:20:00;19.27;;;12.50;;
57111;SDS011;42992;49.084;19.300;2022-10-16T02:22:30;17.67;;;12.18;;
57111;SDS011;42992;49.084;19.300;2022-10-16T02:24:58;15.27;;;12.00;;
57111;SDS011;42992;49.084;19.300;2022-10-16T02:27:26;15.80;;;11.45;;
57111;SDS011;42992;49.084;19.300;2022-10-16T02:29:53;22.42;;;12.63;;
57111;SDS011;42992;49.084;19.300;2022-10-16T02:32:25;20.73;;;11.98;;
57111;SDS011;42992;49.084;19.300;2022-10-16T02:35:08;18.05;;;11.75;;
57111;SDS011;42992;49.084;19.300;2022-10-16T02:38:04;13.90;;;11.45;;
57111;SDS011;42992;49.084;19.300;2022-10-16T02:56:48;16.95;;;11.57;;
57111;SDS011;42992;49.084;19.300;2022-10-16T02:59:15;20.42;;;11.68;;
57111;SDS011;42992;49.084;19.300;2022-10-16T03:01:40;18.08;;;11.68;;
57111;SDS011;42992;49.084;19.300;2022-10-16T03:04:10;17.17;;;11.02;;
57111;SDS011;42992;49.084;19.300;2022-10-16T03:06:36;19.27;;;11.52;;
57111;SDS011;42992;49.084;19.300;2022-10-16T03:09:08;18.85;;;11.45;;
57111;SDS011;42992;49.084;19.300;2022-10-16T03:11:37;17.63;;;12.18;;
57111;SDS011;42992;49.084;19.300;2022-10-16T03:14:04;18.85;;;11.68;;
57111;SDS011;42992;49.084;19.300;2022-10-16T03:16:30;17.73;;;11.00;;
57111;SDS011;42992;49.084;19.300;2022-10-16T03:18:57;14.18;;;10.63;;
57111;SDS011;42992;49.084;19.300;2022-10-16T03:21:24;19.05;;;11.32;;
57111;SDS011;42992;49.084;19.300;2022-10-16T03:23:52;17.38;;;10.57;;
57111;SDS011;42992;49.084;19.300;2022-10-16T03:26:30;13.77;;;10.63;;
57111;SDS011;42992;49.084;19.300;2022-10-16T03:29:06;18.13;;;11.50;;
57111;SDS011;42992;49.084;19.300;2022-10-16T03:31:33;16.40;;;10.80;;
57111;SDS011;42992;49.084;19.300;2022-10-16T03:33:59;13.98;;;10.73;;
57111;SDS011;42992;49.084;19.300;2022-10-16T03:36:32;16.48;;;11.38;;
57111;SDS011;42992;49.084;19.300;2022-10-16T03:39:19;16.33;;;10.73;;
57111;SDS011;42992;49.084;19.300;2022-10-16T03:41:50;14.95;;;11.00;;
57111;SDS011;42992;49.084;19.300;2022-10-16T03:44:29;16.65;;;11.55;;
57111;SDS011;42992;49.084;19.300;2022-10-16T03:46:58;18.85;;;12.02;;
57111;SDS011;42992;49.084;19.300;2022-10-16T03:49:56;19.98;;;12.23;;
57111;SDS011;42992;49.084;19.300;2022-10-16T03:52:24;14.07;;;11.85;;
57111;SDS011;42992;49.084;19.300;2022-10-16T03:54:52;17.52;;;12.38;;
57111;SDS011;42992;49.084;19.300;2022-10-16T04:03:14;16.13;;;11.55;;
57111;SDS011;42992;49.084;19.300;2022-10-16T04:05:44;18.00;;;11.95;;
57111;SDS011;42992;49.084;19.300;2022-10-16T04:08:11;21.88;;;13.60;;
57111;SDS011;42992;49.084;19.300;2022-10-16T04:10:39;14.70;;;11.82;;
57111;SDS011;42992;49.084;19.300;2022-10-16T04:13:09;18.50;;;11.93;;
57111;SDS011;42992;49.084;19.300;2022-10-16T04:15:37;19.20;;;12.60;;
57111;SDS011;42992;49.084;19.300;2022-10-16T04:18:04;18.75;;;11.90;;
57111;SDS011;42992;49.084;19.300;2022-10-16T04:20:33;18.80;;;12.68;;
57111;SDS011;42992;49.084;19.300;2022-10-16T04:22:59;19.17;;;12.27;;
57111;SDS011;42992;49.084;19.300;2022-10-16T04:25:25;17.77;;;13.27;;
57111;SDS011;42992;49.084;19.300;2022-10-16T04:27:52;19.23;;;11.60;;
57111;SDS011;42992;49.084;19.300;2022-10-16T04:30:20;15.48;;;12.00;;
57111;SDS011;42992;49.084;19.300;2022-10-16T04:32:49;19.30;;;12.93;;
57111;SDS011;42992;49.084;19.300;2022-10-16T04:35:16;16.95;;;11.93;;
57111;SDS011;42992;49.084;19.300;2022-10-16T04:37:42;18.33;;;12.20;;
57111;SDS011;42992;49.084;19.300;2022-10-16T04:40:07;21.13;;;12.77;;
57111;SDS011;42992;49.084;19.300;2022-10-16T04:42:33;18.48;;;12.95;;
57111;SDS011;42992;49.084;19.300;2022-10-16T04:45:00;18.13;;;12.05;;
57111;SDS011;42992;49.084;19.300;2022-10-16T04:47:25;17.10;;;14.27;;
57111;SDS011;42992;49.084;19.300;2022-10-16T04:49:56;18.52;;;13.23;;
57111;SDS011;42992;49.084;19.300;2022-10-16T04:52:26;20.25;;;12.90;;
57111;SDS011;42992;49.084;19.300;2022-10-16T04:54:51;23.60;;;14.43;;
57111;SDS011;42992;49.084;19.300;2022-10-16T04:57:19;18.15;;;13.02;;
57111;SDS011;42992;49.084;19.300;2022-10-16T04:59:46;16.80;;;13.77;;
57111;SDS011;42992;49.084;19.300;2022-10-16T05:02:13;16.30;;;13.15;;
57111;SDS011;42992;49.084;19.300;2022-10-16T05:04:40;21.80;;;13.48;;
57111;SDS011;42992;49.084;19.300;2022-10-16T05:07:05;19.27;;;13.30;;
57111;SDS011;42992;49.084;19.300;2022-10-16T05:09:31;17.73;;;13.32;;
57111;SDS011;42992;49.084;19.300;2022-10-16T05:11:58;22.60;;;14.00;;
57111;SDS011;42992;49.084;19.300;2022-10-16T05:14:46;17.13;;;12.88;;
57111;SDS011;42992;49.084;19.300;2022-10-16T05:17:26;17.75;;;12.45;;
57111;SDS011;42992;49.084;19.300;2022-10-16T05:19:53;19.33;;;12.27;;
57111;SDS011;42992;49.084;19.300;2022-10-16T05:22:18;17.17;;;12.15;;
57111;SDS011;42992;49.084;19.300;2022-10-16T05:24:44;16.55;;;12.25;;
57111;SDS011;42992;49.084;19.300;2022-10-16T05:27:11;16.65;;;12.80;;
57111;SDS011;42992;49.084;19.300;2022-10-16T05:29:47;15.38;;;12.45;;
57111;SDS011;42992;49.084;19.300;2022-10-16T05:32:15;19.17;;;12.55;;
57111;SDS011;42992;49.084;19.300;2022-10-16T05:34:40;14.30;;;10.93;;
57111;SDS011;42992;49.084;19.300;2022-10-16T05:37:06;17.67;;;13.00;;
57111;SDS011;42992;49.084;19.300;2022-10-16T05:39:31;16.17;;;11.98;;
57111;SDS011;42992;49.084;19.300;2022-10-16T05:41:56;16.27;;;12.35;;
57111;SDS011;42992;49.084;19.300;2022-10-16T05:44:22;17.52;;;11.68;;
57111;SDS011;42992;49.084;19.300;2022-10-16T05:46:47;20.80;;;11.68;;
57111;SDS011;42992;49.084;19.300;2022-10-16T05:56:59;18.35;;;11.73;;
57111;SDS011;42992;49.084;19.300;2022-10-16T07:26:20;16.23;;;10.68;;
57111;SDS011;42992;49.084;19.300;2022-10-16T07:52:25;12.63;;;9.70;;
57111;SDS011;42992;49.084;19.300;2022-10-16T08:21:42;14.85;;;9.70;;
57111;SDS011;42992;49.084;19.300;2022-10-16T08:32:55;14.35;;;9.13;;
57111;SDS011;42992;49.084;19.300;2022-10-16T08:49:36;11.90;;;8.95;;
57111;SDS011;42992;49.084;19.300;2022-10-16T08:52:04;15.80;;;9.50;;
57111;SDS011;42992;49.084;19.300;2022-10-16T08:57:35;13.73;;;9.00;;
57111;SDS011;42992;49.084;19.300;2022-10-16T09:03:13;13.38;;;9.07;;
57111;SDS011;42992;49.084;19.300;2022-10-16T09:10:38;17.30;;;9.07;;
57111;SDS011;42992;49.084;19.300;2022-10-16T09:13:16;13.98;;;8.88;;
57111;SDS011;42992;49.084;19.300;2022-10-16T09:15:58;14.48;;;8.25;;
57111;SDS011;42992;49.084;19.300;2022-10-16T09:21:27;16.25;;;11.05;;
57111;SDS011;42992;49.084;19.300;2022-10-16T09:23:54;17.13;;;9.65;;
57111;SDS011;42992;49.084;19.300;2022-10-16T09:26:22;16.70;;;9.73;;
57111;SDS011;42992;49.084;19.300;2022-10-16T09:28:47;11.48;;;7.43;;
57111;SDS011;42992;49.084;19.300;2022-10-16T09:31:16;14.38;;;8.13;;
57111;SDS011;42992;49.084;19.300;2022-10-16T09:33:42;12.93;;;7.07;;
57111;SDS011;42992;49.084;19.300;2022-10-16T09:36:09;9.43;;;6.88;;
57111;SDS011;42992;49.084;19.300;2022-10-16T09:38:35;18.90;;;7.50;;
57111;SDS011;42992;49.084;19.300;2022-10-16T09:41:02;13.02;;;7.07;;
57111;SDS011;42992;49.084;19.300;2022-10-16T09:46:05;11.63;;;7.05;;
57111;SDS011;42992;49.084;19.300;2022-10-16T09:48:38;8.27;;;6.00;;
57111;SDS011;42992;49.084;19.300;2022-10-16T09:51:05;15.38;;;6.18;;
57111;SDS011;42992;49.084;19.300;2022-10-16T09:53:41;11.15;;;5.97;;
57111;SDS011;42992;49.084;19.300;2022-10-16T09:56:07;10.68;;;5.80;;
57111;SDS011;42992;49.084;19.300;2022-10-16T09:58:32;9.40;;;5.82;;
57111;SDS011;42992;49.084;19.300;2022-10-16T10:00:58;9.32;;;5.75;;
57111;SDS011;42992;49.084;19.300;2022-10-16T10:05:55;11.35;;;6.00;;
57111;SDS011;42992;49.084;19.300;2022-10-16T10:08:20;8.20;;;5.90;;
57111;SDS011;42992;49.084;19.300;2022-10-16T10:10:46;9.73;;;6.22;;
57111;SDS011;42992;49.084;19.300;2022-10-16T10:13:19;8.90;;;5.72;;
57111;SDS011;42992;49.084;19.300;2022-10-16T10:15:45;9.98;;;6.18;;
57111;SDS011;42992;49.084;19.300;2022-10-16T10:18:15;8.63;;;5.28;;
57111;SDS011;42992;49.084;19.300;2022-10-16T10:20:41;9.23;;;5.75;;
57111;SDS011;42992;49.084;19.300;2022-10-16T10:23:23;8.25;;;5.65;;
57111;SDS011;42992;49.084;19.300;2022-10-16T10:38:52;9.95;;;6.03;;
57111;SDS011;42992;49.084;19.300;2022-10-16T10:44:05;10.07;;;5.82;;
57111;SDS011;42992;49.084;19.300;2022-10-16T10:46:38;9.55;;;6.18;;
57111;SDS011;42992;49.084;19.300;2022-10-16T10:49:12;10.30;;;6.13;;
57111;SDS011;42992;49.084;19.300;2022-10-16T10:51:47;10.95;;;6.72;;
57111;SDS011;42992;49.084;19.300;2022-10-16T10:54:20;10.02;;;6.10;;
57111;SDS011;42992;49.084;19.300;2022-10-16T10:56:50;11.70;;;6.60;;
57111;SDS011;42992;49.084;19.300;2022-10-16T11:07:05;9.00;;;6.73;;
57111;SDS011;42992;49.084;19.300;2022-10-16T11:09:38;11.18;;;6.88;;
57111;SDS011;42992;49.084;19.300;2022-10-16T11:12:16;15.13;;;6.90;;
57111;SDS011;42992;49.084;19.300;2022-10-16T11:14:44;13.35;;;7.35;;
57111;SDS011;42992;49.084;19.300;2022-10-16T11:17:25;9.63;;;7.03;;
57111;SDS011;42992;49.084;19.300;2022-10-16T11:19:57;11.55;;;7.65;;
57111;SDS011;42992;49.084;19.300;2022-10-16T11:25:19;10.07;;;7.00;;
57111;SDS011;42992;49.084;19.300;2022-10-16T11:27:55;11.50;;;7.72;;
57111;SDS011;42992;49.084;19.300;2022-10-16T11:35:27;10.85;;;7.50;;
57111;SDS011;42992;49.084;19.300;2022-10-16T11:37:54;12.35;;;7.45;;
57111;SDS011;42992;49.084;19.300;2022-10-16T11:42:48;10.77;;;6.90;;
57111;SDS011;42992;49.084;19.300;2022-10-16T11:47:43;13.80;;;7.67;;
57111;SDS011;42992;49.084;19.300;2022-10-16T11:53:00;11.05;;;7.10;;
57111;SDS011;42992;49.084;19.300;2022-10-16T11:55:31;12.77;;;6.90;;
57111;SDS011;42992;49.084;19.300;2022-10-16T11:57:59;12.18;;;6.95;;
57111;SDS011;42992;49.084;19.300;2022-10-16T12:00:32;11.82;;;6.95;;
57111;SDS011;42992;49.084;19.300;2022-10-16T12:03:08;12.35;;;6.82;;
57111;SDS011;42992;49.084;19.300;2022-10-16T12:05:44;10.90;;;7.30;;
57111;SDS011;42992;49.084;19.300;2022-10-16T12:08:15;9.60;;;6.70;;
57111;SDS011;42992;49.084;19.300;2022-10-16T12:10:41;11.00;;;7.40;;
57111;SDS011;42992;49.084;19.300;2022-10-16T12:15:51;10.90;;;6.55;;
57111;SDS011;42992;49.084;19.300;2022-10-16T12:18:23;12.40;;;6.93;;
57111;SDS011;42992;49.084;19.300;2022-10-16T12:20:55;8.30;;;7.13;;
57111;SDS011;42992;49.084;19.300;2022-10-16T12:25:53;10.88;;;7.13;;
57111;SDS011;42992;49.084;19.300;2022-10-16T12:28:20;9.73;;;6.80;;
57111;SDS011;42992;49.084;19.300;2022-10-16T12:30:53;9.38;;;6.53;;
57111;SDS011;42992;49.084;19.300;2022-10-16T12:33:20;9.90;;;6.30;;
57111;SDS011;42992;49.084;19.300;2022-10-16T12:35:46;10.23;;;7.10;;
57111;SDS011;42992;49.084;19.300;2022-10-16T12:38:16;12.27;;;7.07;;
57111;SDS011;42992;49.084;19.300;2022-10-16T12:40:43;10.80;;;7.32;;
57111;SDS011;42992;49.084;19.300;2022-10-16T12:45:46;11.70;;;7.53;;
57111;SDS011;42992;49.084;19.300;2022-10-16T12:48:19;10.02;;;6.65;;
57111;SDS011;42992;49.084;19.300;2022-10-16T12:50:45;10.82;;;6.75;;
57111;SDS011;42992;49.084;19.300;2022-10-16T12:53:17;11.10;;;6.93;;
57111;SDS011;42992;49.084;19.300;2022-10-16T12:55:49;11.30;;;6.82;;
57111;SDS011;42992;49.084;19.300;2022-10-16T13:03:40;12.35;;;6.80;;
57111;SDS011;42992;49.084;19.300;2022-10-16T13:11:58;10.77;;;6.85;;
57111;SDS011;42992;49.084;19.300;2022-10-16T13:17:11;8.05;;;6.60;;
57111;SDS011;42992;49.084;19.300;2022-10-16T13:19:44;10.98;;;6.75;;
57111;SDS011;42992;49.084;19.300;2022-10-16T13:30:00;13.07;;;6.60;;
57111;SDS011;42992;49.084;19.300;2022-10-16T13:32:26;10.07;;;6.30;;
57111;SDS011;42992;49.084;19.300;2022-10-16T13:34:52;10.38;;;6.07;;
57111;SDS011;42992;49.084;19.300;2022-10-16T13:37:23;10.63;;;6.80;;
57111;SDS011;42992;49.084;19.300;2022-10-16T13:39:48;9.30;;;6.55;;
57111;SDS011;42992;49.084;19.300;2022-10-16T13:42:20;9.73;;;6.13;;
57111;SDS011;42992;49.084;19.300;2022-10-16T13:44:51;8.80;;;6.18;;
57111;SDS011;42992;49.084;19.300;2022-10-16T13:49:46;12.32;;;6.93;;
57111;SDS011;42992;49.084;19.300;2022-10-16T13:52:18;8.25;;;6.45;;
57111;SDS011;42992;49.084;19.300;2022-10-16T13:54:43;11.73;;;6.90;;
57111;SDS011;42992;49.084;19.300;2022-10-16T13:57:12;10.85;;;6.80;;
57111;SDS011;42992;49.084;19.300;2022-10-16T13:59:38;9.20;;;6.63;;
57111;SDS011;42992;49.084;19.300;2022-10-16T14:04:44;9.65;;;6.35;;
57111;SDS011;42992;49.084;19.300;2022-10-16T14:07:13;9.30;;;6.45;;
57111;SDS011;42992;49.084;19.300;2022-10-16T14:09:39;10.52;;;6.80;;
57111;SDS011;42992;49.084;19.300;2022-10-16T14:12:08;9.35;;;6.68;;
57111;SDS011;42992;49.084;19.300;2022-10-16T14:14:45;10.38;;;7.07;;
57111;SDS011;42992;49.084;19.300;2022-10-16T14:17:24;10.93;;;6.70;;
57111;SDS011;42992;49.084;19.300;2022-10-16T14:19:51;10.85;;;6.70;;
57111;SDS011;42992;49.084;19.300;2022-10-16T14:22:33;11.77;;;7.90;;
57111;SDS011;42992;49.084;19.300;2022-10-16T14:25:00;13.57;;;8.25;;
57111;SDS011;42992;49.084;19.300;2022-10-16T14:27:30;10.38;;;7.70;;
57111;SDS011;42992;49.084;19.300;2022-10-16T14:30:28;12.38;;;7.38;;
57111;SDS011;42992;49.084;19.300;2022-10-16T14:33:03;10.48;;;6.90;;
57111;SDS011;42992;49.084;19.300;2022-10-16T14:35:32;10.07;;;7.30;;
57111;SDS011;42992;49.084;19.300;2022-10-16T14:38:00;11.93;;;7.45;;
57111;SDS011;42992;49.084;19.300;2022-10-16T14:40:28;10.82;;;7.35;;
57111;SDS011;42992;49.084;19.300;2022-10-16T14:42:53;13.57;;;7.63;;
57111;SDS011;42992;49.084;19.300;2022-10-16T14:48:24;12.18;;;7.50;;
57111;SDS011;42992;49.084;19.300;2022-10-16T14:54:15;16.80;;;8.30;;
57111;SDS011;42992;49.084;19.300;2022-10-16T15:03:07;11.10;;;7.25;;
57111;SDS011;42992;49.084;19.300;2022-10-16T15:05:33;12.13;;;7.30;;
57111;SDS011;42992;49.084;19.300;2022-10-16T15:07:58;13.05;;;7.50;;
57111;SDS011;42992;49.084;19.300;2022-10-16T15:10:24;12.90;;;7.25;;
57111;SDS011;42992;49.084;19.300;2022-10-16T15:12:51;10.40;;;7.20;;
57111;SDS011;42992;49.084;19.300;2022-10-16T15:18:26;12.05;;;8.40;;
57111;SDS011;42992;49.084;19.300;2022-10-16T17:45:13;21.63;;;14.10;;
57111;SDS011;42992;49.084;19.300;2022-10-16T17:47:39;24.23;;;15.98;;
57111;SDS011;42992;49.084;19.300;2022-10-16T17:50:16;21.08;;;14.38;;
57111;SDS011;42992;49.084;19.300;2022-10-16T17:56:07;23.83;;;15.18;;
57111;SDS011;42992;49.084;19.300;2022-10-16T17:58:34;26.58;;;15.70;;
57111;SDS011;42992;49.084;19.300;2022-10-16T18:01:01;17.85;;;14.15;;
57111;SDS011;42992;49.084;19.300;2022-10-16T18:03:56;21.88;;;14.27;;
57111;SDS011;42992;49.084;19.300;2022-10-16T18:06:23;19.20;;;13.65;;
57111;SDS011;42992;49.084;19.300;2022-10-16T18:08:49;17.33;;;13.13;;
57111;SDS011;42992;49.084;19.300;2022-10-16T18:11:15;20.33;;;13.05;;
57111;SDS011;42992;49.084;19.300;2022-10-16T18:16:44;20.00;;;14.05;;
57111;SDS011;42992;49.084;19.300;2022-10-16T18:19:11;22.25;;;15.80;;
57111;SDS011;42992;49.084;19.300;2022-10-16T18:21:55;25.58;;;17.42;;
57111;SDS011;42992;49.084;19.300;2022-10-16T18:24:26;27.33;;;18.23;;
57111;SDS011;42992;49.084;19.300;2022-10-16T18:26:52;25.58;;;18.05;;
57111;SDS011;42992;49.084;19.300;2022-10-16T18:29:22;27.50;;;19.73;;
57111;SDS011;42992;49.084;19.300;2022-10-16T18:37:47;53.47;;;32.47;;
57111;SDS011;42992;49.084;19.300;2022-10-16T18:40:13;55.05;;;34.90;;
57111;SDS011;42992;49.084;19.300;2022-10-16T18:42:42;54.00;;;35.38;;
57111;SDS011;42992;49.084;19.300;2022-10-16T18:45:11;55.00;;;34.80;;
57111;SDS011;42992;49.084;19.300;2022-10-16T18:47:36;46.40;;;29.38;;
57111;SDS011;42992;49.084;19.300;2022-10-16T18:50:02;39.67;;;26.02;;
57111;SDS011;42992;49.084;19.300;2022-10-16T18:52:29;32.42;;;19.30;;
57111;SDS011;42992;49.084;19.300;2022-10-16T18:54:55;33.90;;;19.00;;
57111;SDS011;42992;49.084;19.300;2022-10-16T18:57:22;27.30;;;17.10;;
57111;SDS011;42992;49.084;19.300;2022-10-16T18:59:47;27.45;;;15.77;;
57111;SDS011;42992;49.084;19.300;2022-10-16T19:02:48;26.13;;;17.63;;
57111;SDS011;42992;49.084;19.300;2022-10-16T19:05:32;35.80;;;23.85;;
57111;SDS011;42992;49.084;19.300;2022-10-16T19:07:58;40.33;;;25.55;;
57111;SDS011;42992;49.084;19.300;2022-10-16T19:10:29;24.67;;;17.20;;
57111;SDS011;42992;49.084;19.300;2022-10-16T19:13:01;25.95;;;16.52;;
57111;SDS011;42992;49.084;19.300;2022-10-16T19:15:29;37.63;;;23.15;;
57111;SDS011;42992;49.084;19.300;2022-10-16T19:18:15;37.55;;;25.23;;
57111;SDS011;42992;49.084;19.300;2022-10-16T19:20:44;38.35;;;26.40;;
57111;SDS011;42992;49.084;19.300;2022-10-16T19:23:12;43.83;;;27.50;;
57111;SDS011;42992;49.084;19.300;2022-10-16T19:25:45;46.15;;;27.98;;
57111;SDS011;42992;49.084;19.300;2022-10-16T19:34:06;38.25;;;24.35;;
57111;SDS011;42992;49.084;19.300;2022-10-16T19:36:54;40.83;;;25.88;;
57111;SDS011;42992;49.084;19.300;2022-10-16T19:49:31;31.80;;;20.93;;
57111;SDS011;42992;49.084;19.300;2022-10-16T19:51:57;38.10;;;22.70;;
57111;SDS011;42992;49.084;19.300;2022-10-16T19:54:22;36.45;;;22.27;;
57111;SDS011;42992;49.084;19.300;2022-10-16T19:56:48;31.20;;;21.42;;
57111;SDS011;42992;49.084;19.300;2022-10-16T19:59:13;32.35;;;22.80;;
57111;SDS011;42992;49.084;19.300;2022-10-16T20:01:43;42.70;;;29.42;;
57111;SDS011;42992;49.084;19.300;2022-10-16T20:04:08;36.35;;;23.02;;
57111;SDS011;42992;49.084;19.300;2022-10-16T20:06:35;34.17;;;22.00;;
57111;SDS011;42992;49.084;19.300;2022-10-16T20:18:19;32.40;;;21.95;;
57111;SDS011;42992;49.084;19.300;2022-10-16T20:21:21;53.20;;;36.53;;
57111;SDS011;42992;49.084;19.300;2022-10-16T21:09:54;41.65;;;25.55;;
57111;SDS011;42992;49.084;19.300;2022-10-16T21:15:55;50.90;;;28.92;;
57111;SDS011;42992;49.084;19.300;2022-10-16T21:30:33;34.13;;;18.92;;
57111;SDS011;42992;49.084;19.300;2022-10-16T21:33:21;34.70;;;20.70;;
57111;SDS011;42992;49.084;19.300;2022-10-16T21:39:17;32.85;;;20.75;;
57111;SDS011;42992;49.084;19.300;2022-10-16T22:03:10;36.72;;;20.20;;
57111;SDS011;42992;49.084;19.300;2022-10-16T22:11:17;42.53;;;23.23;;
57111;SDS011;42992;49.084;19.300;2022-10-16T22:20:22;32.42;;;19.50;;
57111;SDS011;42992;49.084;19.300;2022-10-16T22:23:14;31.40;;;20.17;;
57111;SDS011;42992;49.084;19.300;2022-10-16T22:37:16;34.38;;;18.05;;
57111;SDS011;42992;49.084;19.300;2022-10-16T22:40:40;35.75;;;18.92;;
57111;SDS011;42992;49.084;19.300;2022-10-16T22:43:25;36.88;;;18.13;;
57111;SDS011;42992;49.084;19.300;2022-10-16T22:51:05;32.17;;;21.00;;
57111;SDS011;42992;49.084;19.300;2022-10-16T22:53:41;29.40;;;18.83;;
57111;SDS011;42992;49.084;19.300;2022-10-16T22:56:37;32.00;;;19.38;;
57111;SDS011;42992;49.084;19.300;2022-10-16T22:59:30;30.38;;;18.88;;
57111;SDS011;42992;49.084;19.300;2022-10-16T23:02:19;28.80;;;19.27;;
57111;SDS011;42992;49.084;19.300;2022-10-16T23:04:46;35.95;;;17.40;;
57111;SDS011;42992;49.084;19.300;2022-10-16T23:10:43;39.40;;;18.02;;
57111;SDS011;42992;49.084;19.300;2022-10-16T23:24:47;31.02;;;18.38;;
